sensor_id;sensor_type;location;lat;lon;timestamp;pressure;altitude;pressure_sealevel;temperature;humidity
7200;BME280;3641;49.082;8.200;2023-09-07T00:07:58;100578.78;;;19.81;58.71
7200;BME280;3641;49.082;8.200;2023-09-07T00:10:26;100572.28;;;19.75;59.07
7200;BME280;3641;49.082;8.200;2023-09-07T00:12:52;100575.53;;;19.72;58.07
7200;BME280;3641;49.082;8.200;2023-09-07T00:15:19;100574.59;;;19.78;58.15
7200;BME280;3641;49.082;8.200;2023-09-07T00:17:46;100562.25;;;19.74;58.80
7200;BME280;3641;49.082;8.200;2023-09-07T00:20:12;100556.25;;;19.66;58.60
7200;BME280;3641;49.082;8.200;2023-09-07T00:22:40;100555.16;;;19.67;58.75
7200;BME280;3641;49.082;8.200;2023-09-07T00:25:08;100567.22;;;19.72;58.84
7200;BME280;3641;49.082;8.200;2023-09-07T00:27:35;100554.81;;;19.63;61.31
7200;BME280;3641;49.082;8.200;2023-09-07T00:30:01;100552.03;;;19.63;58.96
7200;BME280;3641;49.082;8.200;2023-09-07T00:32:29;100554.06;;;19.44;61.16
7200;BME280;3641;49.082;8.200;2023-09-07T00:34:56;100551.91;;;19.34;62.72
7200;BME280;3641;49.082;8.200;2023-09-07T00:37:22;100557.25;;;19.05;66.59
7200;BME280;3641;49.082;8.200;2023-09-07T00:39:48;100555.13;;;19.43;62.17
7200;BME280;3641;49.082;8.200;2023-09-07T00:42:16;100546.34;;;19.34;64.91
7200;BME280;3641;49.082;8.200;2023-09-07T00:44:43;100551.41;;;19.49;59.75
7200;BME280;3641;49.082;8.200;2023-09-07T00:47:09;100543.06;;;19.26;63.17
7200;BME280;3641;49.082;8.200;2023-09-07T00:49:37;100549.00;;;19.41;61.10
7200;BME280;3641;49.082;8.200;2023-09-07T00:52:05;100544.09;;;19.55;60.64
7200;BME280;3641;49.082;8.200;2023-09-07T00:54:31;100547.56;;;19.62;59.95
7200;BME280;3641;49.082;8.200;2023-09-07T00:56:59;100548.78;;;19.66;59.44
7200;BME280;3641;49.082;8.200;2023-09-07T00:59:27;100541.31;;;19.55;60.50
7200;BME280;3641;49.082;8.200;2023-09-07T01:01:53;100546.00;;;19.54;59.76
7200;BME280;3641;49.082;8.200;2023-09-07T01:04:20;100540.94;;;19.51;59.82
7200;BME280;3641;49.082;8.200;2023-09-07T01:06:51;100541.44;;;19.60;59.55
7200;BME280;3641;49.082;8.200;2023-09-07T01:09:20;100545.28;;;19.47;59.59
7200;BME280;3641;49.082;8.200;2023-09-07T01:11:47;100548.28;;;19.57;59.39
7200;BME280;3641;49.082;8.200;2023-09-07T01:14:14;100544.22;;;19.48;60.59
7200;BME280;3641;49.082;8.200;2023-09-07T01:16:42;100548.41;;;19.51;60.31
7200;BME280;3641;49.082;8.200;2023-09-07T01:19:09;100542.88;;;19.51;60.18
7200;BME280;3641;49.082;8.200;2023-09-07T01:21:38;100544.19;;;19.36;62.66
7200;BME280;3641;49.082;8.200;2023-09-07T01:24:07;100539.63;;;19.42;60.02
7200;BME280;3641;49.082;8.200;2023-09-07T01:26:34;100537.47;;;19.32;60.48
7200;BME280;3641;49.082;8.200;2023-09-07T01:29:04;100538.91;;;19.47;59.67
7200;BME280;3641;49.082;8.200;2023-09-07T01:31:30;100532.88;;;19.38;61.18
7200;BME280;3641;49.082;8.200;2023-09-07T01:34:00;100535.53;;;19.45;60.33
7200;BME280;3641;49.082;8.200;2023-09-07T01:36:26;100545.53;;;19.46;59.96
7200;BME280;3641;49.082;8.200;2023-09-07T01:38:54;100545.75;;;19.32;61.72
7200;BME280;3641;49.082;8.200;2023-09-07T01:41:20;100537.47;;;19.44;60.16
7200;BME280;3641;49.082;8.200;2023-09-07T01:43:47;100547.06;;;19.18;63.34
7200;BME280;3641;49.082;8.200;2023-09-07T01:46:14;100535.41;;;19.28;60.59
7200;BME280;3641;49.082;8.200;2023-09-07T01:48:40;100539.19;;;19.03;66.65
7200;BME280;3641;49.082;8.200;2023-09-07T01:51:07;100546.66;;;19.02;62.14
7200;BME280;3641;49.082;8.200;2023-09-07T01:53:33;100548.56;;;18.72;66.72
7200;BME280;3641;49.082;8.200;2023-09-07T01:56:01;100545.47;;;18.80;64.39
7200;BME280;3641;49.082;8.200;2023-09-07T01:58:28;100537.28;;;19.03;64.67
7200;BME280;3641;49.082;8.200;2023-09-07T02:00:57;100540.66;;;19.17;62.22
7200;BME280;3641;49.082;8.200;2023-09-07T02:03:23;100536.13;;;19.23;62.39
7200;BME280;3641;49.082;8.200;2023-09-07T02:05:50;100532.13;;;19.19;61.14
7200;BME280;3641;49.082;8.200;2023-09-07T02:08:16;100532.34;;;19.17;63.03
7200;BME280;3641;49.082;8.200;2023-09-07T02:10:43;100528.03;;;19.21;61.38
7200;BME280;3641;49.082;8.200;2023-09-07T02:13:10;100526.81;;;19.17;62.40
7200;BME280;3641;49.082;8.200;2023-09-07T02:15:37;100532.34;;;19.17;60.74
7200;BME280;3641;49.082;8.200;2023-09-07T02:18:04;100542.38;;;18.58;68.00
7200;BME280;3641;49.082;8.200;2023-09-07T02:20:31;100541.34;;;18.89;62.32
7200;BME280;3641;49.082;8.200;2023-09-07T02:22:57;100531.75;;;19.03;61.34
7200;BME280;3641;49.082;8.200;2023-09-07T02:25:23;100534.00;;;19.06;63.10
7200;BME280;3641;49.082;8.200;2023-09-07T02:27:50;100537.53;;;19.02;61.70
7200;BME280;3641;49.082;8.200;2023-09-07T02:30:18;100540.38;;;18.95;61.95
7200;BME280;3641;49.082;8.200;2023-09-07T02:32:44;100542.06;;;18.96;61.86
7200;BME280;3641;49.082;8.200;2023-09-07T02:35:10;100532.59;;;19.04;61.63
7200;BME280;3641;49.082;8.200;2023-09-07T02:37:37;100538.34;;;19.02;62.46
7200;BME280;3641;49.082;8.200;2023-09-07T02:40:04;100531.34;;;19.00;64.04
7200;BME280;3641;49.082;8.200;2023-09-07T02:42:34;100534.00;;;18.46;67.19
7200;BME280;3641;49.082;8.200;2023-09-07T02:45:01;100538.16;;;18.55;67.07
7200;BME280;3641;49.082;8.200;2023-09-07T02:47:29;100537.09;;;18.38;67.71
7200;BME280;3641;49.082;8.200;2023-09-07T02:49:55;100536.72;;;18.15;68.75
7200;BME280;3641;49.082;8.200;2023-09-07T02:52:22;100528.66;;;18.32;65.26
7200;BME280;3641;49.082;8.200;2023-09-07T02:54:48;100546.50;;;18.18;66.84
7200;BME280;3641;49.082;8.200;2023-09-07T02:57:15;100535.75;;;18.10;69.74
7200;BME280;3641;49.082;8.200;2023-09-07T02:59:41;100536.28;;;18.00;69.33
7200;BME280;3641;49.082;8.200;2023-09-07T03:02:07;100536.25;;;17.82;70.05
7200;BME280;3641;49.082;8.200;2023-09-07T03:04:36;100538.91;;;17.95;70.05
7200;BME280;3641;49.082;8.200;2023-09-07T03:07:02;100537.47;;;18.11;67.62
7200;BME280;3641;49.082;8.200;2023-09-07T03:09:29;100534.69;;;17.92;70.12
7200;BME280;3641;49.082;8.200;2023-09-07T03:11:55;100536.38;;;17.93;70.74
7200;BME280;3641;49.082;8.200;2023-09-07T03:14:22;100534.06;;;17.90;70.05
7200;BME280;3641;49.082;8.200;2023-09-07T03:16:49;100536.53;;;17.99;67.27
7200;BME280;3641;49.082;8.200;2023-09-07T03:19:16;100535.06;;;18.14;64.90
7200;BME280;3641;49.082;8.200;2023-09-07T03:21:44;100536.22;;;18.07;67.48
7200;BME280;3641;49.082;8.200;2023-09-07T03:24:10;100531.16;;;18.04;70.17
7200;BME280;3641;49.082;8.200;2023-09-07T03:26:37;100526.44;;;18.41;63.06
7200;BME280;3641;49.082;8.200;2023-09-07T03:29:03;100531.47;;;18.44;65.42
7200;BME280;3641;49.082;8.200;2023-09-07T03:31:30;100537.13;;;18.19;66.03
7200;BME280;3641;49.082;8.200;2023-09-07T03:33:56;100528.06;;;18.30;63.72
7200;BME280;3641;49.082;8.200;2023-09-07T03:36:22;100532.66;;;18.37;65.32
7200;BME280;3641;49.082;8.200;2023-09-07T03:38:50;100537.44;;;17.92;67.32
7200;BME280;3641;49.082;8.200;2023-09-07T03:41:16;100532.38;;;17.89;70.25
7200;BME280;3641;49.082;8.200;2023-09-07T03:43:43;100527.94;;;18.25;64.17
7200;BME280;3641;49.082;8.200;2023-09-07T03:46:10;100523.28;;;18.38;63.14
7200;BME280;3641;49.082;8.200;2023-09-07T03:48:36;100523.84;;;18.28;64.92
7200;BME280;3641;49.082;8.200;2023-09-07T03:51:05;100522.59;;;18.42;62.74
7200;BME280;3641;49.082;8.200;2023-09-07T03:53:32;100520.94;;;18.23;67.31
7200;BME280;3641;49.082;8.200;2023-09-07T03:56:02;100523.91;;;18.40;62.91
7200;BME280;3641;49.082;8.200;2023-09-07T03:58:29;100528.41;;;18.52;62.41
7200;BME280;3641;49.082;8.200;2023-09-07T04:00:58;100525.63;;;18.22;64.44
7200;BME280;3641;49.082;8.200;2023-09-07T04:03:25;100527.19;;;18.30;63.91
7200;BME280;3641;49.082;8.200;2023-09-07T04:05:52;100524.84;;;18.33;62.88
7200;BME280;3641;49.082;8.200;2023-09-07T04:08:18;100522.16;;;18.27;65.46
7200;BME280;3641;49.082;8.200;2023-09-07T04:10:44;100526.03;;;18.38;63.45
7200;BME280;3641;49.082;8.200;2023-09-07T04:13:12;100526.03;;;18.38;64.94
7200;BME280;3641;49.082;8.200;2023-09-07T04:15:43;100532.28;;;18.33;63.05
7200;BME280;3641;49.082;8.200;2023-09-07T04:18:10;100529.38;;;18.28;64.16
7200;BME280;3641;49.082;8.200;2023-09-07T04:20:37;100528.53;;;18.27;65.01
7200;BME280;3641;49.082;8.200;2023-09-07T04:23:04;100536.16;;;17.95;68.02
7200;BME280;3641;49.082;8.200;2023-09-07T04:25:30;100534.69;;;17.67;70.62
7200;BME280;3641;49.082;8.200;2023-09-07T04:27:57;100534.16;;;17.77;66.28
7200;BME280;3641;49.082;8.200;2023-09-07T04:30:25;100534.56;;;17.81;68.14
7200;BME280;3641;49.082;8.200;2023-09-07T04:32:52;100527.97;;;17.82;68.09
7200;BME280;3641;49.082;8.200;2023-09-07T04:35:18;100531.84;;;17.74;68.94
7200;BME280;3641;49.082;8.200;2023-09-07T04:37:45;100530.84;;;18.12;64.67
7200;BME280;3641;49.082;8.200;2023-09-07T04:40:11;100529.63;;;18.08;65.32
7200;BME280;3641;49.082;8.200;2023-09-07T04:42:38;100536.13;;;18.13;65.55
7200;BME280;3641;49.082;8.200;2023-09-07T04:45:05;100536.53;;;17.99;66.10
7200;BME280;3641;49.082;8.200;2023-09-07T04:47:33;100543.09;;;17.79;70.27
7200;BME280;3641;49.082;8.200;2023-09-07T04:50:02;100536.91;;;17.58;68.60
7200;BME280;3641;49.082;8.200;2023-09-07T04:52:29;100538.50;;;17.91;64.93
7200;BME280;3641;49.082;8.200;2023-09-07T04:54:56;100538.13;;;18.06;64.51
7200;BME280;3641;49.082;8.200;2023-09-07T04:57:22;100542.44;;;17.77;67.91
7200;BME280;3641;49.082;8.200;2023-09-07T04:59:48;100539.91;;;17.32;72.49
7200;BME280;3641;49.082;8.200;2023-09-07T05:02:15;100542.59;;;17.38;72.41
7200;BME280;3641;49.082;8.200;2023-09-07T05:04:43;100542.53;;;17.20;73.54
7200;BME280;3641;49.082;8.200;2023-09-07T05:07:10;100536.78;;;17.47;67.88
7200;BME280;3641;49.082;8.200;2023-09-07T05:09:37;100541.56;;;17.58;67.29
7200;BME280;3641;49.082;8.200;2023-09-07T05:12:03;100541.72;;;17.45;68.13
7200;BME280;3641;49.082;8.200;2023-09-07T05:14:29;100532.97;;;17.22;72.23
7200;BME280;3641;49.082;8.200;2023-09-07T05:16:56;100537.59;;;17.54;67.77
7200;BME280;3641;49.082;8.200;2023-09-07T05:19:23;100535.38;;;17.37;69.65
7200;BME280;3641;49.082;8.200;2023-09-07T05:21:50;100532.91;;;17.54;69.57
7200;BME280;3641;49.082;8.200;2023-09-07T05:24:17;100545.06;;;17.72;68.23
7200;BME280;3641;49.082;8.200;2023-09-07T05:26:43;100546.91;;;17.78;67.05
7200;BME280;3641;49.082;8.200;2023-09-07T05:29:11;100551.47;;;17.66;67.80
7200;BME280;3641;49.082;8.200;2023-09-07T05:31:37;100551.16;;;17.55;68.59
7200;BME280;3641;49.082;8.200;2023-09-07T05:34:04;100547.97;;;17.58;68.22
7200;BME280;3641;49.082;8.200;2023-09-07T05:36:30;100559.16;;;17.64;70.90
7200;BME280;3641;49.082;8.200;2023-09-07T05:38:58;100560.72;;;17.53;70.80
7200;BME280;3641;49.082;8.200;2023-09-07T05:41:27;100555.34;;;17.65;69.25
7200;BME280;3641;49.082;8.200;2023-09-07T05:43:53;100568.69;;;17.86;66.49
7200;BME280;3641;49.082;8.200;2023-09-07T05:46:19;100568.78;;;17.79;68.28
7200;BME280;3641;49.082;8.200;2023-09-07T05:48:46;100572.28;;;17.43;72.89
7200;BME280;3641;49.082;8.200;2023-09-07T05:51:12;100564.63;;;17.45;73.09
7200;BME280;3641;49.082;8.200;2023-09-07T05:53:39;100568.03;;;17.66;68.88
7200;BME280;3641;49.082;8.200;2023-09-07T05:56:07;100573.78;;;17.64;71.30
7200;BME280;3641;49.082;8.200;2023-09-07T05:58:33;100565.34;;;17.59;72.68
7200;BME280;3641;49.082;8.200;2023-09-07T06:00:59;100569.59;;;17.36;73.79
7200;BME280;3641;49.082;8.200;2023-09-07T06:03:26;100575.34;;;17.35;73.11
7200;BME280;3641;49.082;8.200;2023-09-07T06:05:52;100571.72;;;17.59;70.49
7200;BME280;3641;49.082;8.200;2023-09-07T06:08:19;100574.88;;;17.63;68.78
7200;BME280;3641;49.082;8.200;2023-09-07T06:10:45;100577.22;;;17.59;73.01
7200;BME280;3641;49.082;8.200;2023-09-07T06:13:13;100577.28;;;17.53;71.03
7200;BME280;3641;49.082;8.200;2023-09-07T06:15:40;100585.34;;;17.79;67.64
7200;BME280;3641;49.082;8.200;2023-09-07T06:18:06;100581.63;;;17.67;72.23
7200;BME280;3641;49.082;8.200;2023-09-07T06:20:33;100586.97;;;17.87;71.09
7200;BME280;3641;49.082;8.200;2023-09-07T06:23:00;100589.91;;;17.67;72.76
7200;BME280;3641;49.082;8.200;2023-09-07T06:25:27;100586.19;;;17.80;71.79
7200;BME280;3641;49.082;8.200;2023-09-07T06:27:53;100584.28;;;17.81;69.53
7200;BME280;3641;49.082;8.200;2023-09-07T06:30:21;100577.72;;;17.75;71.75
7200;BME280;3641;49.082;8.200;2023-09-07T06:32:47;100577.97;;;17.73;71.42
7200;BME280;3641;49.082;8.200;2023-09-07T06:35:16;100579.31;;;17.89;69.24
7200;BME280;3641;49.082;8.200;2023-09-07T06:37:43;100581.78;;;17.97;71.44
7200;BME280;3641;49.082;8.200;2023-09-07T06:40:10;100583.47;;;17.73;73.48
7200;BME280;3641;49.082;8.200;2023-09-07T06:42:37;100582.97;;;17.83;73.20
7200;BME280;3641;49.082;8.200;2023-09-07T06:45:04;100592.28;;;17.89;70.78
7200;BME280;3641;49.082;8.200;2023-09-07T06:47:32;100587.59;;;17.89;73.10
7200;BME280;3641;49.082;8.200;2023-09-07T06:49:58;100594.91;;;17.77;73.74
7200;BME280;3641;49.082;8.200;2023-09-07T06:52:24;100595.00;;;17.95;72.07
7200;BME280;3641;49.082;8.200;2023-09-07T06:54:51;100594.47;;;18.05;70.80
7200;BME280;3641;49.082;8.200;2023-09-07T06:57:18;100602.13;;;18.22;71.24
7200;BME280;3641;49.082;8.200;2023-09-07T06:59:45;100611.28;;;18.22;71.41
7200;BME280;3641;49.082;8.200;2023-09-07T07:02:11;100607.59;;;18.47;67.75
7200;BME280;3641;49.082;8.200;2023-09-07T07:04:39;100607.28;;;18.37;70.98
7200;BME280;3641;49.082;8.200;2023-09-07T07:07:05;100610.66;;;18.39;71.35
7200;BME280;3641;49.082;8.200;2023-09-07T07:09:32;100609.44;;;18.53;70.47
7200;BME280;3641;49.082;8.200;2023-09-07T07:11:59;100602.06;;;18.65;68.08
7200;BME280;3641;49.082;8.200;2023-09-07T07:14:26;100597.22;;;18.61;69.51
7200;BME280;3641;49.082;8.200;2023-09-07T07:16:52;100594.50;;;18.73;69.28
7200;BME280;3641;49.082;8.200;2023-09-07T07:19:19;100598.78;;;18.87;67.21
7200;BME280;3641;49.082;8.200;2023-09-07T07:21:48;100606.09;;;18.81;69.42
7200;BME280;3641;49.082;8.200;2023-09-07T07:24:14;100600.25;;;18.90;68.72
7200;BME280;3641;49.082;8.200;2023-09-07T07:26:40;100604.56;;;18.85;69.54
7200;BME280;3641;49.082;8.200;2023-09-07T07:29:07;100609.59;;;19.07;66.86
7200;BME280;3641;49.082;8.200;2023-09-07T07:31:34;100607.63;;;18.96;68.66
7200;BME280;3641;49.082;8.200;2023-09-07T07:34:01;100596.38;;;19.21;66.03
7200;BME280;3641;49.082;8.200;2023-09-07T07:36:27;100600.59;;;19.12;67.57
7200;BME280;3641;49.082;8.200;2023-09-07T07:38:55;100598.59;;;19.31;66.45
7200;BME280;3641;49.082;8.200;2023-09-07T07:41:21;100587.41;;;19.37;67.05
7200;BME280;3641;49.082;8.200;2023-09-07T07:43:48;100594.84;;;19.37;66.47
7200;BME280;3641;49.082;8.200;2023-09-07T07:46:15;100587.63;;;19.36;67.13
7200;BME280;3641;49.082;8.200;2023-09-07T07:48:42;100594.53;;;19.45;67.45
7200;BME280;3641;49.082;8.200;2023-09-07T07:51:08;100587.06;;;19.57;66.75
7200;BME280;3641;49.082;8.200;2023-09-07T07:53:35;100588.63;;;19.65;67.28
7200;BME280;3641;49.082;8.200;2023-09-07T07:56:03;100590.81;;;19.63;67.26
7200;BME280;3641;49.082;8.200;2023-09-07T07:58:29;100590.44;;;19.71;67.21
7200;BME280;3641;49.082;8.200;2023-09-07T08:00:55;100592.88;;;19.80;66.59
7200;BME280;3641;49.082;8.200;2023-09-07T08:03:23;100591.22;;;19.90;66.05
7200;BME280;3641;49.082;8.200;2023-09-07T08:05:50;100589.66;;;19.94;65.87
7200;BME280;3641;49.082;8.200;2023-09-07T08:08:16;100591.56;;;19.94;65.94
7200;BME280;3641;49.082;8.200;2023-09-07T08:10:44;100597.34;;;20.04;65.56
7200;BME280;3641;49.082;8.200;2023-09-07T08:13:12;100599.03;;;20.05;66.14
7200;BME280;3641;49.082;8.200;2023-09-07T08:15:38;100599.63;;;20.19;65.16
7200;BME280;3641;49.082;8.200;2023-09-07T08:18:05;100594.41;;;20.23;65.64
7200;BME280;3641;49.082;8.200;2023-09-07T08:20:32;100599.34;;;20.32;64.94
7200;BME280;3641;49.082;8.200;2023-09-07T08:22:58;100596.06;;;20.36;64.65
7200;BME280;3641;49.082;8.200;2023-09-07T08:25:28;100592.81;;;20.39;64.50
7200;BME280;3641;49.082;8.200;2023-09-07T08:27:55;100596.41;;;20.51;65.18
7200;BME280;3641;49.082;8.200;2023-09-07T08:30:25;100595.69;;;20.56;64.54
7200;BME280;3641;49.082;8.200;2023-09-07T08:32:51;100594.38;;;20.58;64.26
7200;BME280;3641;49.082;8.200;2023-09-07T08:35:18;100598.94;;;20.64;64.63
7200;BME280;3641;49.082;8.200;2023-09-07T08:37:44;100585.38;;;20.80;63.89
7200;BME280;3641;49.082;8.200;2023-09-07T08:40:11;100586.66;;;20.89;63.77
7200;BME280;3641;49.082;8.200;2023-09-07T08:42:37;100593.53;;;20.86;63.87
7200;BME280;3641;49.082;8.200;2023-09-07T08:45:05;100596.06;;;20.88;64.08
7200;BME280;3641;49.082;8.200;2023-09-07T08:47:36;100597.38;;;20.97;63.42
7200;BME280;3641;49.082;8.200;2023-09-07T08:50:05;100602.50;;;21.05;63.18
7200;BME280;3641;49.082;8.200;2023-09-07T08:52:33;100592.34;;;21.11;62.94
7200;BME280;3641;49.082;8.200;2023-09-07T08:55:00;100598.81;;;21.17;63.17
7200;BME280;3641;49.082;8.200;2023-09-07T08:57:30;100598.00;;;21.16;62.83
7200;BME280;3641;49.082;8.200;2023-09-07T08:59:59;100598.28;;;21.32;62.67
7200;BME280;3641;49.082;8.200;2023-09-07T09:02:25;100598.59;;;21.35;62.13
7200;BME280;3641;49.082;8.200;2023-09-07T09:04:53;100599.53;;;21.41;62.51
7200;BME280;3641;49.082;8.200;2023-09-07T09:07:20;100594.78;;;21.53;62.27
7200;BME280;3641;49.082;8.200;2023-09-07T09:09:47;100596.28;;;21.61;61.77
7200;BME280;3641;49.082;8.200;2023-09-07T09:12:13;100592.50;;;21.67;62.09
7200;BME280;3641;49.082;8.200;2023-09-07T09:14:41;100594.59;;;21.77;61.59
7200;BME280;3641;49.082;8.200;2023-09-07T09:17:11;100594.84;;;21.75;61.78
7200;BME280;3641;49.082;8.200;2023-09-07T09:19:39;100590.81;;;21.83;61.66
7200;BME280;3641;49.082;8.200;2023-09-07T09:22:07;100585.56;;;21.87;60.94
7200;BME280;3641;49.082;8.200;2023-09-07T09:24:34;100584.63;;;21.98;61.32
7200;BME280;3641;49.082;8.200;2023-09-07T09:27:01;100592.53;;;22.06;61.10
7200;BME280;3641;49.082;8.200;2023-09-07T09:29:28;100588.22;;;22.16;60.15
7200;BME280;3641;49.082;8.200;2023-09-07T09:31:55;100583.56;;;22.21;59.99
7200;BME280;3641;49.082;8.200;2023-09-07T09:34:21;100583.91;;;22.25;60.72
7200;BME280;3641;49.082;8.200;2023-09-07T09:36:48;100581.69;;;22.27;59.96
7200;BME280;3641;49.082;8.200;2023-09-07T09:39:23;100577.66;;;22.35;59.71
7200;BME280;3641;49.082;8.200;2023-09-07T09:41:50;100577.19;;;22.43;60.51
7200;BME280;3641;49.082;8.200;2023-09-07T09:44:16;100576.44;;;22.47;59.56
7200;BME280;3641;49.082;8.200;2023-09-07T09:46:43;100563.50;;;22.58;59.04
7200;BME280;3641;49.082;8.200;2023-09-07T09:49:12;100560.28;;;22.72;59.08
7200;BME280;3641;49.082;8.200;2023-09-07T09:51:41;100567.97;;;22.87;59.22
7200;BME280;3641;49.082;8.200;2023-09-07T09:54:09;100565.84;;;22.72;59.36
7200;BME280;3641;49.082;8.200;2023-09-07T09:56:36;100570.13;;;22.79;59.99
7200;BME280;3641;49.082;8.200;2023-09-07T09:59:03;100568.47;;;23.06;59.38
7200;BME280;3641;49.082;8.200;2023-09-07T10:01:30;100565.06;;;23.03;58.82
7200;BME280;3641;49.082;8.200;2023-09-07T10:03:57;100559.78;;;23.29;58.03
7200;BME280;3641;49.082;8.200;2023-09-07T10:06:25;100562.13;;;23.43;56.99
7200;BME280;3641;49.082;8.200;2023-09-07T10:08:57;100557.69;;;23.47;57.98
7200;BME280;3641;49.082;8.200;2023-09-07T10:11:29;100557.19;;;23.55;58.35
7200;BME280;3641;49.082;8.200;2023-09-07T10:13:58;100554.72;;;23.96;54.68
7200;BME280;3641;49.082;8.200;2023-09-07T10:16:25;100557.91;;;24.20;54.99
7200;BME280;3641;49.082;8.200;2023-09-07T10:18:52;100564.00;;;24.07;57.47
7200;BME280;3641;49.082;8.200;2023-09-07T10:21:23;100562.09;;;24.13;57.03
7200;BME280;3641;49.082;8.200;2023-09-07T10:23:51;100559.25;;;24.65;54.36
7200;BME280;3641;49.082;8.200;2023-09-07T10:26:18;100560.16;;;24.81;53.73
7200;BME280;3641;49.082;8.200;2023-09-07T10:28:47;100547.84;;;24.82;53.31
7200;BME280;3641;49.082;8.200;2023-09-07T10:31:17;100546.47;;;24.95;52.56
7200;BME280;3641;49.082;8.200;2023-09-07T10:33:45;100552.63;;;24.97;52.72
7200;BME280;3641;49.082;8.200;2023-09-07T10:36:20;100547.88;;;24.98;53.60
7200;BME280;3641;49.082;8.200;2023-09-07T10:38:47;100549.19;;;22.77;73.30
7200;BME280;3641;49.082;8.200;2023-09-07T10:41:14;100548.03;;;23.22;71.46
7200;BME280;3641;49.082;8.200;2023-09-07T10:43:47;100549.88;;;24.24;64.73
7200;BME280;3641;49.082;8.200;2023-09-07T10:46:15;100542.69;;;24.43;57.65
7200;BME280;3641;49.082;8.200;2023-09-07T10:48:44;100533.59;;;24.79;57.00
7200;BME280;3641;49.082;8.200;2023-09-07T10:51:10;100541.66;;;24.65;61.81
7200;BME280;3641;49.082;8.200;2023-09-07T10:53:37;100540.00;;;24.79;58.84
7200;BME280;3641;49.082;8.200;2023-09-07T10:56:05;100537.84;;;25.17;58.59
7200;BME280;3641;49.082;8.200;2023-09-07T10:58:33;100539.81;;;25.17;57.08
7200;BME280;3641;49.082;8.200;2023-09-07T11:01:00;100528.41;;;25.34;59.13
7200;BME280;3641;49.082;8.200;2023-09-07T11:03:30;100529.75;;;25.67;55.29
7200;BME280;3641;49.082;8.200;2023-09-07T11:05:59;100529.13;;;25.91;56.98
7200;BME280;3641;49.082;8.200;2023-09-07T11:08:28;100523.19;;;26.23;52.39
7200;BME280;3641;49.082;8.200;2023-09-07T11:10:56;100524.47;;;26.46;52.16
7200;BME280;3641;49.082;8.200;2023-09-07T11:13:23;100528.88;;;26.58;51.91
7200;BME280;3641;49.082;8.200;2023-09-07T11:15:53;100517.84;;;26.27;55.71
7200;BME280;3641;49.082;8.200;2023-09-07T11:18:20;100521.28;;;26.08;56.71
7200;BME280;3641;49.082;8.200;2023-09-07T11:20:49;100514.03;;;25.97;55.04
7200;BME280;3641;49.082;8.200;2023-09-07T11:23:16;100511.22;;;25.92;56.93
7200;BME280;3641;49.082;8.200;2023-09-07T11:25:43;100503.41;;;26.04;56.30
7200;BME280;3641;49.082;8.200;2023-09-07T11:28:09;100493.63;;;25.91;54.02
7200;BME280;3641;49.082;8.200;2023-09-07T11:30:37;100492.97;;;26.20;55.45
7200;BME280;3641;49.082;8.200;2023-09-07T11:33:04;100484.69;;;26.50;50.12
7200;BME280;3641;49.082;8.200;2023-09-07T11:35:31;100496.53;;;26.36;54.63
7200;BME280;3641;49.082;8.200;2023-09-07T11:38:00;100503.31;;;26.25;53.86
7200;BME280;3641;49.082;8.200;2023-09-07T11:40:29;100497.41;;;26.32;51.06
7200;BME280;3641;49.082;8.200;2023-09-07T11:42:55;100501.50;;;26.50;53.58
7200;BME280;3641;49.082;8.200;2023-09-07T11:45:22;100496.03;;;26.24;53.66
7200;BME280;3641;49.082;8.200;2023-09-07T11:47:48;100498.00;;;26.18;53.23
7200;BME280;3641;49.082;8.200;2023-09-07T11:50:16;100499.34;;;26.36;51.81
7200;BME280;3641;49.082;8.200;2023-09-07T11:52:43;100502.31;;;26.50;53.38
7200;BME280;3641;49.082;8.200;2023-09-07T11:55:13;100494.28;;;26.38;54.59
7200;BME280;3641;49.082;8.200;2023-09-07T11:57:39;100501.16;;;26.67;51.67
7200;BME280;3641;49.082;8.200;2023-09-07T12:00:07;100495.56;;;26.67;53.78
7200;BME280;3641;49.082;8.200;2023-09-07T12:02:36;100497.56;;;26.56;51.28
7200;BME280;3641;49.082;8.200;2023-09-07T12:05:03;100488.31;;;26.55;51.39
7200;BME280;3641;49.082;8.200;2023-09-07T12:07:29;100491.09;;;26.66;50.63
7200;BME280;3641;49.082;8.200;2023-09-07T12:09:56;100500.53;;;26.75;51.51
7200;BME280;3641;49.082;8.200;2023-09-07T12:12:24;100491.38;;;27.04;49.77
7200;BME280;3641;49.082;8.200;2023-09-07T12:14:50;100488.38;;;26.90;49.07
7200;BME280;3641;49.082;8.200;2023-09-07T12:17:17;100487.03;;;26.82;53.24
7200;BME280;3641;49.082;8.200;2023-09-07T12:19:45;100481.28;;;27.08;49.30
7200;BME280;3641;49.082;8.200;2023-09-07T12:22:12;100479.00;;;27.10;48.74
7200;BME280;3641;49.082;8.200;2023-09-07T12:24:38;100479.66;;;26.96;53.83
7200;BME280;3641;49.082;8.200;2023-09-07T12:27:04;100475.72;;;26.97;50.63
7200;BME280;3641;49.082;8.200;2023-09-07T12:29:32;100471.72;;;27.09;51.43
7200;BME280;3641;49.082;8.200;2023-09-07T12:31:59;100465.81;;;27.45;47.80
7200;BME280;3641;49.082;8.200;2023-09-07T12:34:25;100458.06;;;27.31;51.56
7200;BME280;3641;49.082;8.200;2023-09-07T12:36:52;100462.47;;;27.08;50.68
7200;BME280;3641;49.082;8.200;2023-09-07T12:39:18;100466.03;;;27.19;47.76
7200;BME280;3641;49.082;8.200;2023-09-07T12:41:44;100458.41;;;27.25;50.09
7200;BME280;3641;49.082;8.200;2023-09-07T12:44:11;100454.56;;;27.15;48.28
7200;BME280;3641;49.082;8.200;2023-09-07T12:46:39;100462.38;;;27.18;51.77
7200;BME280;3641;49.082;8.200;2023-09-07T12:49:05;100444.34;;;27.35;47.96
7200;BME280;3641;49.082;8.200;2023-09-07T12:51:33;100452.44;;;27.36;48.82
7200;BME280;3641;49.082;8.200;2023-09-07T12:53:59;100455.28;;;27.31;52.55
7200;BME280;3641;49.082;8.200;2023-09-07T12:56:25;100449.94;;;27.30;51.00
7200;BME280;3641;49.082;8.200;2023-09-07T12:58:52;100451.78;;;27.45;46.79
7200;BME280;3641;49.082;8.200;2023-09-07T13:01:19;100448.63;;;27.51;50.79
7200;BME280;3641;49.082;8.200;2023-09-07T13:03:47;100447.72;;;27.32;48.68
7200;BME280;3641;49.082;8.200;2023-09-07T13:06:13;100445.31;;;27.49;50.25
7200;BME280;3641;49.082;8.200;2023-09-07T13:08:42;100457.34;;;27.50;49.05
7200;BME280;3641;49.082;8.200;2023-09-07T13:11:08;100442.50;;;27.49;49.81
7200;BME280;3641;49.082;8.200;2023-09-07T13:13:35;100446.56;;;27.62;49.69
7200;BME280;3641;49.082;8.200;2023-09-07T13:16:01;100442.00;;;27.42;49.16